createdAt,value
2018-03-21T00:02:03.511Z,0.93
2018-03-21T00:04:32.616Z,1.01
2018-03-21T00:07:01.737Z,0.92
2018-03-21T00:09:30.760Z,0.95
2018-03-21T00:11:59.879Z,1.02
2018-03-21T00:14:29.425Z,1.00
2018-03-21T00:16:58.514Z,0.93
2018-03-21T00:19:27.537Z,0.92
2018-03-21T00:21:56.595Z,1.12
2018-03-21T00:24:25.571Z,0.87
2018-03-21T00:26:54.517Z,0.61
2018-03-21T00:29:24.498Z,0.49
2018-03-21T00:31:53.624Z,0.38
2018-03-21T00:40:06.627Z,0.37
2018-03-21T00:42:37.252Z,0.29
2018-03-21T00:45:08.592Z,0.18
2018-03-21T00:47:39.268Z,0.23
2018-03-21T00:50:11.459Z,0.22
2018-03-21T00:52:42.321Z,0.20
2018-03-21T00:55:12.863Z,0.03
2018-03-21T00:57:43.558Z,-0.04
2018-03-21T01:00:14.321Z,0.15
2018-03-21T01:02:45.011Z,0.09
2018-03-21T01:05:15.635Z,-0.05
2018-03-21T01:07:50.636Z,-0.08
2018-03-21T01:10:21.192Z,-0.22
2018-03-21T01:12:51.837Z,-0.32
2018-03-21T01:15:22.633Z,-0.29
2018-03-21T01:17:53.208Z,-0.31
2018-03-21T01:20:23.787Z,-0.28
2018-03-21T01:22:54.368Z,-0.16
2018-03-21T01:25:25.347Z,-0.19
2018-03-21T01:27:56.862Z,-0.24
2018-03-21T01:30:28.565Z,-0.14
2018-03-21T01:32:59.182Z,-0.20
2018-03-21T01:35:29.947Z,-0.20
2018-03-21T01:38:00.743Z,-0.33
2018-03-21T01:40:31.621Z,-0.38
2018-03-21T01:43:02.382Z,-0.38
2018-03-21T01:45:33.381Z,-0.44
2018-03-21T01:48:04.220Z,-0.45
2018-03-21T01:50:35.347Z,-0.53
2018-03-21T01:53:12.442Z,-0.60
2018-03-21T01:55:43.275Z,-0.65
2018-03-21T01:58:14.059Z,-0.73
2018-03-21T02:00:44.633Z,-0.61
2018-03-21T02:03:15.376Z,-0.56
2018-03-21T02:05:58.274Z,-0.57
2018-03-21T02:09:12.663Z,-0.62
2018-03-21T02:11:52.755Z,-0.66
2018-03-21T02:14:25.447Z,-0.66
2018-03-21T02:17:02.272Z,-0.67
2018-03-21T02:19:41.751Z,-0.74
2018-03-21T02:25:49.453Z,-0.82
2018-03-21T02:28:19.981Z,-0.78
2018-03-21T02:30:50.630Z,-0.74
2018-03-21T02:33:21.308Z,-0.76
2018-03-21T02:35:52.028Z,-0.76
2018-03-21T02:38:22.647Z,-0.82
2018-03-21T02:40:53.341Z,-0.70
2018-03-21T02:43:24.028Z,-0.85
2018-03-21T02:45:54.802Z,-0.88
2018-03-21T02:48:25.425Z,-0.89
2018-03-21T02:50:56.185Z,-0.87
2018-03-21T02:53:26.841Z,-0.85
2018-03-21T02:55:57.546Z,-0.83
2018-03-21T02:58:28.609Z,-0.88
2018-03-21T03:00:59.284Z,-0.80
2018-03-21T03:03:29.900Z,-0.83
2018-03-21T03:06:00.505Z,-0.91
2018-03-21T03:08:31.253Z,-0.91
2018-03-21T03:11:01.918Z,-0.89
2018-03-21T03:13:32.674Z,-0.93
2018-03-21T03:16:03.425Z,-1.02
2018-03-21T03:18:34.219Z,-0.97
2018-03-21T03:21:04.998Z,-1.05
2018-03-21T03:23:36.103Z,-0.97
2018-03-21T03:26:07.204Z,-1.04
2018-03-21T03:28:37.888Z,-1.00
2018-03-21T03:31:08.625Z,-1.02
2018-03-21T03:33:39.384Z,-1.00
2018-03-21T03:36:10.101Z,-1.02
2018-03-21T03:38:40.726Z,-1.04
2018-03-21T03:41:11.701Z,-1.09
2018-03-21T03:43:42.250Z,-1.07
2018-03-21T03:46:18.096Z,-1.12
2018-03-21T03:48:48.656Z,-1.10
2018-03-21T03:51:19.299Z,-0.98
2018-03-21T03:53:50.159Z,-1.11
2018-03-21T03:56:20.752Z,-1.05
2018-03-21T03:58:51.407Z,-1.13
2018-03-21T04:01:22.047Z,-1.24
2018-03-21T04:03:52.659Z,-1.17
2018-03-21T04:06:23.293Z,-1.18
2018-03-21T04:08:54.771Z,-1.20
2018-03-21T04:11:25.379Z,-1.16
2018-03-21T04:13:56.003Z,-1.17
2018-03-21T04:16:26.620Z,-1.24
2018-03-21T04:21:45.447Z,-1.26
2018-03-21T04:24:16.332Z,-1.30
2018-03-21T04:26:52.671Z,-1.14
2018-03-21T04:29:28.187Z,-1.30
2018-03-21T04:31:58.850Z,-1.28
2018-03-21T04:34:29.450Z,-1.30
2018-03-21T04:37:12.300Z,-1.55
2018-03-21T04:39:42.920Z,-1.57
2018-03-21T04:42:13.601Z,-1.79
2018-03-21T04:44:47.136Z,-1.66
2018-03-21T04:47:19.125Z,-1.88
2018-03-21T04:49:51.207Z,-2.01
2018-03-21T04:52:22.283Z,-2.08
2018-03-21T04:54:55.454Z,-2.14
2018-03-21T04:57:26.576Z,-2.11
2018-03-21T04:59:57.656Z,-2.12
2018-03-21T05:02:28.441Z,-2.06
2018-03-21T05:04:59.172Z,-2.30
2018-03-21T05:07:29.754Z,-2.37
2018-03-21T05:10:01.290Z,-2.44
2018-03-21T05:12:31.989Z,-2.39
2018-03-21T05:15:02.567Z,-2.45
2018-03-21T05:17:33.188Z,-2.39
2018-03-21T05:20:04.224Z,-2.49
2018-03-21T05:22:34.766Z,-2.38
2018-03-21T05:25:07.022Z,-2.49
2018-03-21T05:27:37.754Z,-2.53
2018-03-21T05:30:10.130Z,-2.62
2018-03-21T05:32:40.800Z,-2.66
2018-03-21T05:35:12.338Z,-2.65
2018-03-21T05:37:44.278Z,-2.75
2018-03-21T05:40:15.183Z,-2.70
2018-03-21T05:42:45.793Z,-2.74
2018-03-21T05:45:16.319Z,-2.61
2018-03-21T05:47:47.357Z,-2.69
2018-03-21T05:50:22.965Z,-2.70
2018-03-21T05:52:53.456Z,-2.71
2018-03-21T05:55:24.433Z,-2.81
2018-03-21T05:57:55.023Z,-2.80
2018-03-21T06:00:25.539Z,-2.75
2018-03-21T06:03:01.222Z,-2.56
2018-03-21T06:05:32.030Z,-2.77
2018-03-21T06:08:02.641Z,-2.83
2018-03-21T06:10:38.098Z,-2.60
2018-03-21T06:13:10.442Z,-2.68
2018-03-21T06:15:41.231Z,-2.82
2018-03-21T06:18:12.200Z,-2.71
2018-03-21T06:20:42.775Z,-2.61
2018-03-21T06:23:13.355Z,-2.47
2018-03-21T06:25:47.830Z,-2.44
2018-03-21T06:28:18.511Z,-2.40
2018-03-21T06:30:49.218Z,-2.40
2018-03-21T06:33:20.319Z,-2.49
2018-03-21T06:35:50.873Z,-2.40
2018-03-21T06:38:21.382Z,-2.36
2018-03-21T06:40:52.308Z,-2.23
2018-03-21T06:43:22.908Z,-2.24
2018-03-21T06:46:00.997Z,-2.11
2018-03-21T06:48:31.902Z,-2.06
2018-03-21T06:51:02.566Z,-2.01
2018-03-21T06:53:33.158Z,-1.82
2018-03-21T06:56:04.161Z,-1.73
2018-03-21T06:58:34.861Z,-1.52
2018-03-21T07:01:05.510Z,-1.08
2018-03-21T07:03:36.748Z,-0.87
2018-03-21T07:06:07.413Z,-0.66
2018-03-21T07:08:38.202Z,-0.65
2018-03-21T07:11:09.218Z,-0.28
2018-03-21T07:13:48.114Z,-0.24
2018-03-21T07:16:28.960Z,-0.21
2018-03-21T07:18:59.916Z,-0.07
2018-03-21T07:21:32.949Z,0.09
2018-03-21T07:24:03.636Z,0.26
2018-03-21T07:26:35.136Z,0.41
2018-03-21T07:29:05.879Z,0.75
2018-03-21T07:31:36.651Z,1.01
2018-03-21T07:34:07.622Z,1.50
2018-03-21T07:36:40.039Z,2.01
2018-03-21T07:39:10.127Z,3.00
2018-03-21T07:41:40.736Z,3.30
2018-03-21T07:44:11.402Z,4.10
2018-03-21T07:46:42.612Z,5.19
2018-03-21T07:49:13.360Z,5.50
2018-03-21T07:51:43.972Z,5.77
2018-03-21T07:54:14.559Z,5.31
2018-03-21T07:56:45.655Z,6.89
2018-03-21T07:59:16.491Z,4.94
2018-03-21T08:01:47.250Z,5.72
2018-03-21T08:04:18.782Z,6.10
2018-03-21T08:06:49.454Z,6.96
2018-03-21T08:09:20.340Z,9.43
2018-03-21T08:11:53.303Z,7.99
2018-03-21T08:14:23.928Z,8.74
2018-03-21T08:16:54.523Z,7.70
2018-03-21T08:19:26.796Z,7.67
2018-03-21T08:21:57.390Z,9.02
2018-03-21T08:24:28.199Z,8.01
2018-03-21T08:27:00.492Z,9.15
2018-03-21T08:29:31.303Z,9.76
2018-03-21T08:32:02.295Z,9.34
2018-03-21T08:37:20.202Z,7.39
2018-03-21T08:39:54.506Z,7.07
2018-03-21T08:42:25.462Z,6.97
2018-03-21T08:44:56.332Z,7.70
2018-03-21T08:47:30.360Z,7.55
2018-03-21T08:50:01.184Z,5.73
2018-03-21T08:52:31.882Z,7.55
2018-03-21T08:55:02.732Z,8.96
2018-03-21T08:57:33.819Z,8.47
2018-03-21T09:00:04.646Z,8.77
2018-03-21T09:02:35.296Z,9.87
2018-03-21T09:05:07.672Z,9.52
2018-03-21T09:07:39.652Z,10.04
2018-03-21T09:10:11.012Z,10.61
2018-03-21T09:12:42.109Z,11.38
2018-03-21T09:15:14.424Z,12.68
2018-03-21T09:17:46.480Z,9.42
2018-03-21T09:20:17.166Z,9.06
2018-03-21T09:22:47.830Z,8.99
2018-03-21T09:25:18.602Z,7.04
2018-03-21T09:27:49.675Z,5.36
2018-03-21T09:30:20.451Z,5.74
2018-03-21T09:32:51.034Z,5.05
2018-03-21T09:35:25.194Z,6.63
2018-03-21T09:37:56.006Z,6.01
2018-03-21T09:40:26.945Z,6.56
2018-03-21T09:42:58.495Z,5.46
2018-03-21T09:45:29.115Z,6.63
2018-03-21T09:47:59.727Z,5.69
2018-03-21T09:50:30.556Z,7.16
2018-03-21T09:53:01.310Z,8.49
2018-03-21T09:55:32.231Z,8.32
2018-03-21T09:58:02.843Z,6.86
2018-03-21T10:00:33.488Z,6.13
2018-03-21T10:03:04.483Z,6.91
2018-03-21T10:05:35.302Z,8.31
2018-03-21T10:08:05.907Z,8.56
2018-03-21T10:10:36.954Z,9.47
2018-03-21T10:13:07.810Z,7.53
2018-03-21T10:15:38.572Z,8.32
2018-03-21T10:18:09.623Z,7.94
2018-03-21T10:20:40.414Z,6.84
2018-03-21T10:23:11.289Z,7.89
2018-03-21T10:25:43.428Z,8.12
2018-03-21T10:28:14.160Z,8.95
2018-03-21T10:30:44.804Z,9.01
2018-03-21T10:33:15.744Z,9.25
2018-03-21T10:35:46.558Z,8.97
2018-03-21T10:38:17.688Z,8.56
2018-03-21T10:40:48.723Z,7.72
2018-03-21T10:43:19.717Z,7.66
2018-03-21T10:45:51.008Z,7.42
2018-03-21T10:48:21.776Z,8.09
2018-03-21T10:50:53.119Z,6.71
2018-03-21T10:53:23.848Z,7.16
2018-03-21T10:55:54.710Z,6.72
2018-03-21T10:58:26.040Z,6.73
2018-03-21T11:00:57.035Z,5.21
2018-03-21T11:03:27.964Z,6.08
2018-03-21T11:06:01.866Z,5.17
2018-03-21T11:08:33.952Z,4.21
2018-03-21T11:11:05.264Z,4.33
2018-03-21T11:13:36.729Z,4.95
2018-03-21T11:16:07.832Z,5.31
2018-03-21T11:18:39.509Z,5.51
2018-03-21T11:21:13.835Z,5.79
2018-03-21T11:23:44.824Z,5.60
2018-03-21T11:26:15.567Z,5.91
2018-03-21T11:28:48.154Z,6.12
2018-03-21T11:31:18.816Z,5.90
2018-03-21T11:33:50.179Z,5.87
2018-03-21T11:36:21.397Z,6.01
2018-03-21T11:38:52.080Z,6.55
2018-03-21T11:41:22.908Z,5.90
2018-03-21T11:43:54.892Z,5.48
2018-03-21T11:46:25.568Z,5.79
2018-03-21T11:48:56.202Z,5.73
2018-03-21T11:51:27.164Z,5.99
2018-03-21T11:53:58.046Z,6.07
2018-03-21T11:56:28.631Z,6.48
2018-03-21T11:59:02.360Z,5.61
2018-03-21T12:01:33.344Z,5.06
2018-03-21T12:04:04.061Z,5.19
2018-03-21T12:06:36.943Z,4.71
2018-03-21T12:09:08.010Z,5.01
2018-03-21T12:11:38.757Z,5.25
2018-03-21T12:14:09.695Z,5.64
2018-03-21T12:16:40.372Z,5.52
2018-03-21T12:19:11.212Z,5.14
2018-03-21T12:21:43.654Z,5.42
2018-03-21T12:24:14.573Z,5.76
2018-03-21T12:26:45.422Z,6.26
2018-03-21T12:29:18.682Z,5.94
2018-03-21T12:31:49.672Z,5.71
2018-03-21T12:34:20.603Z,5.13
2018-03-21T12:36:51.787Z,5.37
2018-03-21T12:39:22.770Z,4.85
2018-03-21T12:41:53.600Z,4.68
2018-03-21T12:44:24.696Z,5.30
2018-03-21T12:46:55.576Z,5.29
2018-03-21T12:49:26.120Z,5.38
2018-03-21T12:51:58.719Z,6.02
2018-03-21T12:54:29.600Z,6.38
2018-03-21T12:57:00.564Z,5.78
2018-03-21T12:59:31.463Z,5.46
2018-03-21T13:02:02.201Z,5.47
2018-03-21T13:04:49.899Z,5.22
2018-03-21T13:07:20.544Z,5.11
2018-03-21T13:09:51.246Z,5.41
2018-03-21T13:12:25.928Z,5.85
2018-03-21T13:14:56.896Z,6.58
2018-03-21T13:17:27.783Z,6.11
2018-03-21T13:20:00.564Z,5.55
2018-03-21T13:22:32.555Z,6.36
2018-03-21T13:25:03.901Z,6.58
2018-03-21T13:27:34.980Z,7.51
2018-03-21T13:30:06.798Z,7.06
2018-03-21T13:35:30.035Z,7.54
2018-03-21T13:38:01.664Z,7.37
2018-03-21T13:40:32.622Z,7.28
2018-03-21T13:43:03.492Z,6.53
2018-03-21T13:45:34.256Z,6.43
2018-03-21T13:48:06.292Z,5.93
2018-03-21T13:50:37.067Z,6.48
2018-03-21T13:53:07.264Z,6.27
2018-03-21T13:55:39.935Z,6.78
2018-03-21T13:58:10.840Z,6.89
2018-03-21T14:00:41.701Z,7.23
2018-03-21T14:03:14.340Z,7.96
2018-03-21T14:05:44.916Z,8.14
2018-03-21T14:08:15.504Z,8.93
2018-03-21T14:10:46.407Z,9.60
2018-03-21T14:13:17.448Z,9.72
2018-03-21T14:15:49.000Z,10.54
2018-03-21T14:18:19.888Z,11.27
2018-03-21T14:20:50.673Z,12.11
2018-03-21T14:23:22.300Z,12.06
2018-03-21T14:25:53.306Z,12.78
2018-03-21T14:28:23.931Z,12.83
2018-03-21T14:30:56.107Z,12.41
2018-03-21T14:33:28.090Z,12.36
2018-03-21T14:35:59.045Z,12.04
2018-03-21T14:38:29.750Z,11.34
2018-03-21T14:41:00.376Z,11.03
2018-03-21T14:43:38.084Z,10.34
2018-03-21T14:46:08.744Z,11.58
2018-03-21T14:48:39.340Z,11.28
2018-03-21T14:51:13.380Z,11.58
2018-03-21T14:53:44.224Z,11.44
2018-03-21T14:56:14.940Z,11.60
2018-03-21T14:58:47.214Z,11.39
2018-03-21T15:01:17.836Z,10.77
2018-03-21T15:03:48.636Z,10.73
2018-03-21T15:06:19.708Z,10.31
2018-03-21T15:08:51.149Z,12.16
2018-03-21T15:11:22.248Z,12.39
2018-03-21T15:13:52.946Z,12.58
2018-03-21T15:16:24.243Z,12.93
2018-03-21T15:18:55.151Z,13.49
2018-03-21T15:21:26.972Z,13.80
2018-03-21T15:23:57.755Z,12.92
2018-03-21T15:26:28.540Z,12.18
2018-03-21T15:28:59.563Z,12.49
2018-03-21T15:31:31.432Z,12.43
2018-03-21T15:34:02.460Z,13.13
2018-03-21T15:36:33.399Z,13.24
2018-03-21T15:39:08.171Z,11.85
2018-03-21T15:41:38.875Z,11.68
2018-03-21T15:44:09.968Z,11.95
2018-03-21T15:46:42.043Z,12.18
2018-03-21T15:49:12.870Z,12.51
2018-03-21T15:51:43.814Z,13.03
2018-03-21T15:54:16.033Z,11.66
2018-03-21T15:56:46.900Z,9.81
2018-03-21T15:59:17.579Z,10.02
2018-03-21T16:01:50.932Z,10.45
2018-03-21T16:04:21.603Z,10.32
2018-03-21T16:06:52.935Z,10.37
2018-03-21T16:09:26.333Z,10.46
2018-03-21T16:11:57.170Z,9.69
2018-03-21T16:14:29.288Z,9.66
2018-03-21T16:16:59.930Z,9.78
2018-03-21T16:19:30.736Z,9.45
2018-03-21T16:22:01.988Z,9.33
2018-03-21T16:24:32.595Z,9.00
2018-03-21T16:27:04.064Z,7.91
2018-03-21T16:29:36.390Z,7.27
2018-03-21T16:32:07.158Z,6.85
2018-03-21T16:34:37.933Z,6.76
2018-03-21T16:37:12.735Z,5.88
2018-03-21T16:39:43.403Z,5.47
2018-03-21T16:42:14.103Z,5.35
2018-03-21T16:44:53.227Z,5.40
2018-03-21T16:47:23.875Z,5.21
2018-03-21T16:49:55.385Z,5.35
2018-03-21T16:52:26.019Z,5.29
2018-03-21T16:54:56.658Z,5.07
2018-03-21T16:57:27.854Z,5.03
2018-03-21T16:59:58.562Z,4.81
2018-03-21T17:02:30.216Z,4.50
2018-03-21T17:05:01.373Z,4.51
2018-03-21T17:07:32.120Z,4.49
2018-03-21T17:10:02.944Z,4.47
2018-03-21T17:12:35.336Z,4.18
2018-03-21T17:15:06.208Z,4.25
2018-03-21T17:17:37.098Z,4.34
2018-03-21T17:20:09.047Z,4.33
2018-03-21T17:22:39.647Z,4.15
2018-03-21T17:25:12.253Z,4.03
2018-03-21T17:27:43.135Z,4.00
2018-03-21T17:30:14.162Z,4.20
2018-03-21T17:32:45.723Z,3.88
2018-03-21T17:35:16.706Z,3.77
2018-03-21T17:37:48.843Z,3.61
2018-03-21T17:40:19.651Z,3.52
2018-03-21T17:42:50.506Z,3.29
2018-03-21T17:45:21.747Z,3.10
2018-03-21T17:47:52.505Z,2.89
2018-03-21T17:50:23.458Z,2.78
2018-03-21T17:52:54.305Z,2.73
2018-03-21T17:55:25.093Z,2.78
2018-03-21T17:58:00.882Z,2.73
2018-03-21T18:00:31.551Z,2.57
2018-03-21T18:03:02.449Z,2.21
2018-03-21T18:05:33.829Z,2.20
2018-03-21T18:08:04.832Z,1.98
2018-03-21T18:10:35.500Z,1.94
2018-03-21T18:13:08.985Z,1.88
2018-03-21T18:15:40.002Z,1.82
2018-03-21T18:18:11.607Z,1.51
2018-03-21T18:20:43.126Z,1.52
2018-03-21T18:23:14.070Z,1.47
2018-03-21T18:25:45.122Z,1.22
2018-03-21T18:28:18.916Z,1.14
2018-03-21T18:30:49.667Z,1.16
2018-03-21T18:33:21.284Z,1.04
2018-03-21T18:35:53.207Z,0.92
2018-03-21T18:38:24.246Z,0.89
2018-03-21T18:40:54.927Z,0.85
2018-03-21T18:43:27.075Z,0.74
2018-03-21T18:45:58.544Z,0.79
2018-03-21T18:48:32.460Z,0.56
2018-03-21T18:51:09.260Z,0.49
2018-03-21T18:53:47.551Z,0.51
2018-03-21T18:56:19.758Z,0.59
2018-03-21T18:58:50.529Z,0.39
2018-03-21T19:01:21.166Z,0.34
2018-03-21T19:03:54.244Z,0.32
2018-03-21T19:06:25.285Z,0.30
2018-03-21T19:08:59.607Z,0.29
2018-03-21T19:11:32.727Z,0.29
2018-03-21T19:14:03.355Z,0.31
2018-03-21T19:16:34.816Z,0.11
2018-03-21T19:19:08.357Z,0.05
2018-03-21T19:21:39.152Z,0.03
2018-03-21T19:24:10.089Z,-0.02
2018-03-21T19:26:41.182Z,0.00
2018-03-21T19:29:12.095Z,0.05
2018-03-21T19:31:42.734Z,0.03
2018-03-21T19:34:13.807Z,-0.01
2018-03-21T19:36:44.486Z,-0.08
2018-03-21T19:39:15.808Z,0.00
2018-03-21T19:41:46.656Z,0.02
2018-03-21T19:44:17.741Z,-0.01
2018-03-21T19:46:51.509Z,0.00
2018-03-21T19:49:22.794Z,-0.04
2018-03-21T19:51:54.773Z,-0.23
2018-03-21T19:54:26.328Z,-0.24
2018-03-21T19:56:57.115Z,-0.30
2018-03-21T19:59:28.026Z,-0.30
2018-03-21T20:01:59.112Z,-0.29
2018-03-21T20:04:29.836Z,-0.44
2018-03-21T20:07:03.328Z,-0.38
2018-03-21T20:09:34.051Z,-0.34
2018-03-21T20:12:05.333Z,-0.43
2018-03-21T20:14:36.290Z,-0.42
2018-03-21T20:17:07.093Z,-0.47
2018-03-21T20:19:37.760Z,-0.57
2018-03-21T20:22:09.442Z,-0.46
2018-03-21T20:24:40.096Z,-0.57
2018-03-21T20:27:10.734Z,-0.55
2018-03-21T20:29:44.874Z,-0.47
2018-03-21T20:32:15.784Z,-0.60
2018-03-21T20:34:46.774Z,-0.62
2018-03-21T20:37:17.440Z,-0.68
2018-03-21T20:39:48.010Z,-0.60
2018-03-21T20:42:23.988Z,-0.77
2018-03-21T20:44:54.674Z,-0.74
2018-03-21T20:47:25.905Z,-0.80
2018-03-21T20:49:57.236Z,-0.87
2018-03-21T20:52:28.056Z,-1.03
2018-03-21T20:54:59.663Z,-0.95
2018-03-21T20:57:37.690Z,-0.99
2018-03-21T21:00:12.271Z,-0.99
2018-03-21T21:02:44.274Z,-1.08
2018-03-21T21:05:15.000Z,-1.05
2018-03-21T21:07:46.037Z,-1.11
2018-03-21T21:10:18.315Z,-1.07
2018-03-21T21:12:49.122Z,-1.14
2018-03-21T21:15:19.776Z,-1.11
2018-03-21T21:17:50.870Z,-1.11
2018-03-21T21:20:21.855Z,-1.22
2018-03-21T21:22:52.653Z,-1.29
2018-03-21T21:25:23.713Z,-1.21
2018-03-21T21:27:54.437Z,-1.25
2018-03-21T21:30:25.020Z,-1.39
2018-03-21T21:32:55.942Z,-1.42
2018-03-21T21:35:26.593Z,-1.26
2018-03-21T21:37:57.200Z,-1.47
2018-03-21T21:40:28.297Z,-1.45
2018-03-21T21:42:59.203Z,-1.45
2018-03-21T21:45:30.055Z,-1.43
2018-03-21T21:48:04.015Z,-1.50
2018-03-21T21:50:34.682Z,-1.47
2018-03-21T21:53:05.658Z,-1.48
2018-03-21T21:55:37.464Z,-1.53
2018-03-21T21:58:08.191Z,-1.49
2018-03-21T22:00:40.514Z,-1.63
2018-03-21T22:03:11.102Z,-1.49
2018-03-21T22:05:41.563Z,-1.72
2018-03-21T22:08:12.286Z,-1.71
2018-03-21T22:10:43.118Z,-1.66
2018-03-21T22:13:15.344Z,-1.64
2018-03-21T22:15:46.241Z,-1.77
2018-03-21T22:18:18.166Z,-1.70
2018-03-21T22:20:49.311Z,-1.78
2018-03-21T22:23:20.715Z,-1.76
2018-03-21T22:25:51.213Z,-1.73
2018-03-21T22:28:21.837Z,-1.82
2018-03-21T22:30:52.605Z,-1.78
2018-03-21T22:33:23.587Z,-1.90
2018-03-21T22:35:54.465Z,-1.89
2018-03-21T22:38:25.039Z,-1.84
2018-03-21T22:40:58.243Z,-1.93
2018-03-21T22:43:28.979Z,-2.01
2018-03-21T22:46:00.509Z,-2.01
2018-03-21T22:48:32.517Z,-1.96
2018-03-21T22:51:03.355Z,-1.98
2018-03-21T22:53:34.136Z,-2.08
2018-03-21T22:56:07.235Z,-2.08
2018-03-21T22:58:37.914Z,-2.16
2018-03-21T23:01:08.748Z,-2.15
2018-03-21T23:03:45.159Z,-2.16
2018-03-21T23:06:15.749Z,-2.13
2018-03-21T23:08:48.723Z,-2.06
2018-03-21T23:11:19.898Z,-2.26
2018-03-21T23:13:50.553Z,-2.35
2018-03-21T23:16:21.339Z,-2.40
2018-03-21T23:18:51.898Z,-2.39
2018-03-21T23:21:22.593Z,-2.37
2018-03-21T23:23:53.516Z,-2.39
2018-03-21T23:26:24.060Z,-2.37
2018-03-21T23:28:54.663Z,-2.38
2018-03-21T23:31:25.567Z,-2.49
2018-03-21T23:33:56.396Z,-2.52
2018-03-21T23:36:27.101Z,-2.50
2018-03-21T23:38:57.978Z,-2.44
2018-03-21T23:41:28.697Z,-2.51
2018-03-21T23:44:00.275Z,-2.52
2018-03-21T23:46:30.825Z,-2.54
2018-03-21T23:49:01.574Z,-2.59
2018-03-21T23:51:32.045Z,-2.56
2018-03-21T23:54:02.589Z,-2.55
2018-03-21T23:56:33.664Z,-2.56
2018-03-21T23:59:04.457Z,-2.58
